KLFK/LFK METAR and TAF weather

Enter ICAO airport designator
Station Type Date Time Source
KLFK METAR 2019/05/19 20:53 UTC NOAA

KLFK 192053Z AUTO 9SM FEW046 SCT055 32/22 A2984 RMK AO2 SLP101 T03170217 56015


Station Type Date Time Source
KLFK Decoded METAR 2019/05/19 20:53 UTC NOAA

LUFKIN ANGELINA COUNTY AIRPORT , TX, United States (KLFK) 31-14N 94-45W 88M
May 19, 2019 - 04:53 PM EDT / 2019.05.19 2053 UTC
Visibility: 9 mile(s):0
Sky conditions: partly cloudy
Temperature: 89.1 F (31.7 C)
Heat index: 95.2 F (35.1 C):1
Dew Point: 71.1 F (21.7 C)
Relative Humidity: 55%
Pressure (altimeter): 29.84 in. Hg (1010 hPa)
Pressure tendency: 0.04 inches (1.5 hPa) lower than three hours ago
ob: KLFK 192053Z AUTO 9SM FEW046 SCT055 32/22 A2984 RMK AO2 SLP101 T03170217 56015
cycle: 21

Station Type Date Time Source
KLFK TAF 2019/05/19 18:33 UTC NOAA

TAF KLFK 191731Z 1918/2018 24007KT P6SM SKC
FM200000 12005KT P6SM SCT040 BKN120
FM200600 13004KT 6SM BR OVC015
FM200900 12005KT 6SM BR OVC010
FM201500 15011G17KT P6SM OVC015

Example: see airport list